createdAt,value
2022-10-06T00:01:12.787Z,102174.20
2022-10-06T00:03:44.198Z,102175.23
2022-10-06T00:06:16.848Z,102176.56
2022-10-06T00:08:46.078Z,102174.38
2022-10-06T00:11:15.321Z,102173.39
2022-10-06T00:13:44.168Z,102171.20
2022-10-06T00:16:17.757Z,102166.59
2022-10-06T00:18:46.356Z,102163.79
2022-10-06T00:21:14.837Z,102158.86
2022-10-06T00:23:43.534Z,102157.55
2022-10-06T00:26:17.387Z,102152.59
2022-10-06T00:28:49.494Z,102148.77
2022-10-06T00:31:20.056Z,102143.73
2022-10-06T00:33:49.840Z,102147.16
2022-10-06T00:36:18.221Z,102148.48
2022-10-06T00:38:46.601Z,102146.00
2022-10-06T00:41:15.991Z,102145.00
2022-10-06T00:43:47.765Z,102145.41
2022-10-06T00:46:17.210Z,102142.17
2022-10-06T00:48:46.923Z,102145.42
2022-10-06T00:51:15.462Z,102148.23
2022-10-06T00:53:43.960Z,102142.39
2022-10-06T00:56:12.548Z,102138.83
2022-10-06T00:58:41.011Z,102132.77
2022-10-06T01:01:11.759Z,102127.67
2022-10-06T01:03:46.166Z,102126.73
2022-10-06T01:06:15.160Z,102121.02
2022-10-06T01:08:43.622Z,102117.77
2022-10-06T01:11:15.627Z,102115.73
2022-10-06T01:13:45.113Z,102117.34
2022-10-06T01:16:18.977Z,102116.00
2022-10-06T01:18:49.173Z,102113.06
2022-10-06T01:21:20.284Z,102107.64
2022-10-06T01:23:50.201Z,102105.36
2022-10-06T01:26:20.292Z,102104.39
2022-10-06T01:28:48.778Z,102101.98
2022-10-06T01:31:18.088Z,102104.34
2022-10-06T01:33:51.296Z,102105.53
2022-10-06T01:36:20.391Z,102103.80
2022-10-06T01:38:50.615Z,102103.49
2022-10-06T01:41:20.096Z,102102.65
2022-10-06T01:43:48.711Z,102101.73
2022-10-06T01:46:17.131Z,102101.85
2022-10-06T01:48:45.771Z,102102.88
2022-10-06T01:51:16.506Z,102099.40
2022-10-06T01:53:44.988Z,102098.80
2022-10-06T01:56:14.288Z,102099.03
2022-10-06T01:58:43.488Z,102101.55
2022-10-06T02:01:12.703Z,102099.39
2022-10-06T02:03:41.476Z,102103.68
2022-10-06T02:06:10.712Z,102103.85
2022-10-06T02:08:39.565Z,102107.27
2022-10-06T02:11:09.524Z,102111.19
2022-10-06T02:13:42.469Z,102113.58
2022-10-06T02:16:12.807Z,102114.95
2022-10-06T02:18:42.609Z,102114.03
2022-10-06T02:21:18.206Z,102112.96
2022-10-06T02:23:46.432Z,102109.30
2022-10-06T02:26:19.931Z,102110.23
2022-10-06T02:28:50.242Z,102111.98
2022-10-06T02:31:21.831Z,102108.27
2022-10-06T02:33:50.189Z,102107.73
2022-10-06T02:36:19.160Z,102109.40
2022-10-06T02:38:47.757Z,102109.06
2022-10-06T02:41:16.044Z,102111.67
2022-10-06T02:43:44.320Z,102111.15
2022-10-06T02:46:13.969Z,102108.80
2022-10-06T02:48:47.430Z,102110.41
2022-10-06T02:51:19.682Z,102109.09
2022-10-06T02:53:48.900Z,102114.11
2022-10-06T02:56:20.660Z,102115.15
2022-10-06T02:58:50.063Z,102114.92
2022-10-06T03:01:30.479Z,102109.45
2022-10-06T03:04:01.266Z,102108.20
2022-10-06T03:06:31.481Z,102110.19
2022-10-06T03:09:11.671Z,102112.45
2022-10-06T03:11:42.983Z,102108.98
2022-10-06T03:14:19.091Z,102104.75
2022-10-06T03:16:55.116Z,102114.34
2022-10-06T03:19:28.201Z,102112.23
2022-10-06T03:21:56.679Z,102114.42
2022-10-06T03:24:31.980Z,102112.82
2022-10-06T03:27:00.912Z,102110.81
2022-10-06T03:29:31.445Z,102110.25
2022-10-06T03:32:00.232Z,102111.80
2022-10-06T03:34:29.941Z,102112.52
2022-10-06T03:36:58.941Z,102113.61
2022-10-06T03:39:28.036Z,102115.43
2022-10-06T03:41:57.209Z,102114.02
2022-10-06T03:44:25.508Z,102111.07
2022-10-06T03:46:54.211Z,102109.19
2022-10-06T03:49:23.187Z,102107.27
2022-10-06T03:51:51.566Z,102109.04
2022-10-06T03:54:23.634Z,102107.98
2022-10-06T03:56:53.747Z,102109.29
2022-10-06T03:59:21.976Z,102106.23
2022-10-06T04:01:53.291Z,102101.40
2022-10-06T04:04:28.836Z,102103.52
2022-10-06T04:07:07.546Z,102099.14
2022-10-06T04:09:36.990Z,102099.38
2022-10-06T04:12:05.330Z,102100.46
2022-10-06T04:14:36.142Z,102098.89
2022-10-06T04:17:05.471Z,102100.60
2022-10-06T04:19:37.330Z,102101.06
2022-10-06T04:22:05.610Z,102102.41
2022-10-06T04:24:35.350Z,102105.19
2022-10-06T04:27:22.959Z,102106.37
2022-10-06T04:29:56.653Z,102103.95
2022-10-06T04:32:25.749Z,102103.61
2022-10-06T04:34:54.333Z,102106.90
2022-10-06T04:37:23.841Z,102103.00
2022-10-06T04:39:52.424Z,102101.54
2022-10-06T04:42:20.605Z,102106.34
2022-10-06T04:44:49.080Z,102109.71
2022-10-06T04:47:17.872Z,102109.67
2022-10-06T04:49:46.349Z,102107.59
2022-10-06T04:52:14.915Z,102108.08
2022-10-06T04:54:43.828Z,102104.10
2022-10-06T04:57:12.309Z,102105.44
2022-10-06T05:00:05.313Z,102101.46
2022-10-06T05:02:37.286Z,102099.23
2022-10-06T05:05:08.243Z,102099.40
2022-10-06T05:07:36.760Z,102099.35
2022-10-06T05:10:05.644Z,102105.52
2022-10-06T05:12:34.535Z,102104.55
2022-10-06T05:15:02.760Z,102106.59
2022-10-06T05:17:31.296Z,102112.50
2022-10-06T05:20:00.597Z,102115.49
2022-10-06T05:22:28.874Z,102119.94
2022-10-06T05:24:57.252Z,102120.18
2022-10-06T05:27:25.838Z,102120.92
2022-10-06T05:29:54.351Z,102120.73
2022-10-06T05:32:22.904Z,102119.12
2022-10-06T05:34:51.182Z,102119.54
2022-10-06T05:37:19.692Z,102116.87
2022-10-06T05:39:48.554Z,102117.77
2022-10-06T05:42:17.652Z,102116.77
2022-10-06T05:44:46.543Z,102115.42
2022-10-06T05:47:16.764Z,102114.33
2022-10-06T05:49:45.861Z,102114.52
2022-10-06T05:52:14.076Z,102118.20
2022-10-06T05:54:43.133Z,102121.27
2022-10-06T05:57:12.024Z,102123.08
2022-10-06T05:59:40.404Z,102129.74
2022-10-06T06:02:09.519Z,102130.20
2022-10-06T06:04:40.543Z,102129.70
2022-10-06T06:07:09.444Z,102131.28
2022-10-06T06:09:38.530Z,102135.44
2022-10-06T06:12:07.561Z,102136.52
2022-10-06T06:15:13.155Z,102145.24
2022-10-06T06:17:46.883Z,102148.14
2022-10-06T06:20:15.570Z,102146.38
2022-10-06T06:22:43.953Z,102147.43
2022-10-06T06:25:13.562Z,102149.98
2022-10-06T06:27:43.987Z,102153.83
2022-10-06T06:30:13.016Z,102156.61
2022-10-06T06:32:41.873Z,102158.34
2022-10-06T06:35:11.815Z,102162.05
2022-10-06T06:37:40.172Z,102160.92
2022-10-06T06:40:08.828Z,102157.50
2022-10-06T06:42:39.461Z,102160.22
2022-10-06T06:45:34.493Z,102161.08
2022-10-06T06:48:17.722Z,102160.83
2022-10-06T06:50:55.685Z,102162.39
2022-10-06T06:53:24.823Z,102161.31
2022-10-06T06:55:54.869Z,102160.01
2022-10-06T06:58:24.143Z,102162.25
2022-10-06T07:00:52.871Z,102157.52
2022-10-06T07:03:52.185Z,102160.80
2022-10-06T07:06:11.606Z,102158.83
2022-10-06T07:08:44.420Z,102161.38
2022-10-06T07:11:14.329Z,102159.86
2022-10-06T07:13:43.505Z,102161.58
2022-10-06T07:16:34.617Z,102164.40
2022-10-06T07:19:24.769Z,102166.27
2022-10-06T07:22:17.977Z,102163.86
2022-10-06T07:25:05.499Z,102160.67
2022-10-06T07:27:38.055Z,102164.29
2022-10-06T07:30:06.662Z,102160.09
2022-10-06T07:32:34.940Z,102164.90
2022-10-06T07:35:04.856Z,102163.51
2022-10-06T07:37:36.925Z,102163.83
2022-10-06T07:40:06.942Z,102162.92
2022-10-06T07:42:48.497Z,102159.87
2022-10-06T07:45:39.330Z,102154.19
2022-10-06T07:48:18.468Z,102154.66
2022-10-06T07:50:50.678Z,102149.92
2022-10-06T07:53:27.726Z,102151.59
2022-10-06T07:56:09.620Z,102151.75
2022-10-06T07:58:45.073Z,102152.16
2022-10-06T08:01:14.887Z,102146.20
2022-10-06T08:03:43.985Z,102142.24
2022-10-06T08:06:16.348Z,102140.98
2022-10-06T08:08:48.063Z,102136.93
2022-10-06T08:11:21.506Z,102136.16
2022-10-06T08:13:52.169Z,102133.77
2022-10-06T08:16:22.995Z,102135.05
2022-10-06T08:18:55.149Z,102130.36
2022-10-06T08:21:26.600Z,102127.70
2022-10-06T08:23:56.947Z,102122.98
2022-10-06T08:26:26.603Z,102122.06
2022-10-06T08:28:57.986Z,102121.86
2022-10-06T08:31:26.797Z,102122.65
2022-10-06T08:33:56.933Z,102115.23
2022-10-06T08:36:30.941Z,102117.30
2022-10-06T08:39:00.724Z,102115.91
2022-10-06T08:41:32.973Z,102118.13
2022-10-06T08:44:16.860Z,102117.92
2022-10-06T08:46:50.953Z,102119.75
2022-10-06T08:49:20.770Z,102116.29
2022-10-06T08:52:10.549Z,102119.27
2022-10-06T08:54:47.428Z,102120.06
2022-10-06T08:57:35.266Z,102121.73
2022-10-06T09:00:08.754Z,102115.96
2022-10-06T09:02:39.577Z,102112.88
2022-10-06T09:05:09.007Z,102113.35
2022-10-06T09:07:44.144Z,102113.08
2022-10-06T09:10:31.161Z,102113.06
2022-10-06T09:13:21.716Z,102112.65
2022-10-06T09:15:53.477Z,102108.38
2022-10-06T09:18:56.002Z,102109.66
2022-10-06T09:21:24.521Z,102108.02
2022-10-06T09:23:54.284Z,102106.42
2022-10-06T09:26:24.136Z,102099.81
2022-10-06T09:28:52.928Z,102093.19
2022-10-06T09:31:32.598Z,102095.05
2022-10-06T09:34:05.766Z,102092.41
2022-10-06T09:36:57.698Z,102090.20
2022-10-06T09:39:33.017Z,102084.25
2022-10-06T09:42:03.960Z,102082.38
2022-10-06T09:44:52.730Z,102080.15
2022-10-06T09:47:36.663Z,102082.39
2022-10-06T09:50:22.046Z,102076.48
2022-10-06T09:53:00.887Z,102074.10
2022-10-06T09:55:34.142Z,102066.44
2022-10-06T09:58:02.952Z,102065.48
2022-10-06T10:00:33.270Z,102066.61
2022-10-06T10:03:01.834Z,102063.93
2022-10-06T10:05:32.905Z,102065.38
2022-10-06T10:08:19.355Z,102065.44
2022-10-06T10:10:48.608Z,102066.42
2022-10-06T10:13:26.912Z,102065.48
2022-10-06T10:16:03.330Z,102061.21
2022-10-06T10:18:32.387Z,102057.55
2022-10-06T10:21:05.377Z,102052.84
2022-10-06T10:23:39.250Z,102042.83
2022-10-06T10:26:19.645Z,102044.00
2022-10-06T10:29:03.593Z,102037.91
2022-10-06T10:31:44.270Z,102040.08
2022-10-06T10:34:25.199Z,102036.41
2022-10-06T10:36:56.420Z,102029.92
2022-10-06T10:39:37.974Z,102026.52
2022-10-06T10:42:14.235Z,102027.86
2022-10-06T10:44:48.043Z,102029.13
2022-10-06T10:47:31.000Z,102020.50
2022-10-06T10:50:19.723Z,102013.02
2022-10-06T10:52:50.767Z,102009.11
2022-10-06T10:55:30.561Z,102008.52
2022-10-06T10:58:00.308Z,102009.50
2022-10-06T11:00:31.025Z,102009.34
2022-10-06T11:03:01.592Z,102000.23
2022-10-06T11:05:52.092Z,102004.23
2022-10-06T11:08:25.285Z,101999.47
2022-10-06T11:10:59.071Z,102000.57
2022-10-06T11:13:39.047Z,101993.09
2022-10-06T11:16:19.848Z,101990.23
2022-10-06T11:18:51.370Z,101983.45
2022-10-06T11:21:26.099Z,101980.67
2022-10-06T11:24:20.694Z,101981.03
2022-10-06T11:27:08.425Z,101975.20
2022-10-06T11:29:36.808Z,101978.42
2022-10-06T11:32:17.868Z,101975.59
2022-10-06T11:34:48.527Z,101973.67
2022-10-06T11:37:23.045Z,101968.86
2022-10-06T11:39:57.994Z,101967.30
2022-10-06T11:42:42.747Z,101966.38
2022-10-06T11:45:14.098Z,101965.90
2022-10-06T11:47:56.606Z,101961.48
2022-10-06T11:50:33.527Z,101965.98
2022-10-06T11:53:02.274Z,101965.48
2022-10-06T11:55:30.756Z,101957.27
2022-10-06T12:01:02.642Z,101953.75
2022-10-06T12:03:33.991Z,101953.13
2022-10-06T12:06:03.600Z,101950.25
2022-10-06T12:08:39.475Z,101950.54
2022-10-06T12:11:27.292Z,101951.69
2022-10-06T12:17:15.415Z,101942.16
2022-10-06T12:19:46.645Z,101944.17
2022-10-06T12:22:18.466Z,101945.91
2022-10-06T12:24:53.198Z,101941.14
2022-10-06T12:27:30.690Z,101941.84
2022-10-06T12:30:02.697Z,101936.94
2022-10-06T12:32:40.659Z,101937.17
2022-10-06T12:35:10.165Z,101936.67
2022-10-06T12:37:43.564Z,101932.00
2022-10-06T12:40:31.301Z,101933.85
2022-10-06T12:43:18.624Z,101933.27
2022-10-06T12:45:47.175Z,101935.91
2022-10-06T12:48:18.661Z,101932.25
2022-10-06T12:50:48.953Z,101927.38
2022-10-06T12:53:21.177Z,101928.00
2022-10-06T12:55:52.016Z,101926.13
2022-10-06T12:58:30.429Z,101922.36
2022-10-06T13:01:22.161Z,101918.41
2022-10-06T13:03:52.003Z,101914.72
2022-10-06T13:06:24.737Z,101917.52
2022-10-06T13:09:07.472Z,101916.91
2022-10-06T13:11:35.936Z,101921.45
2022-10-06T13:14:13.435Z,101921.99
2022-10-06T13:16:46.547Z,101922.95
2022-10-06T13:19:17.363Z,101926.48
2022-10-06T13:21:46.820Z,101927.14
2022-10-06T13:24:19.647Z,101925.83
2022-10-06T13:26:48.749Z,101919.83
2022-10-06T13:29:21.637Z,101917.10
2022-10-06T13:31:52.946Z,101912.00
2022-10-06T13:34:34.964Z,101911.72
2022-10-06T13:37:03.813Z,101913.36
2022-10-06T13:39:32.381Z,101912.69
2022-10-06T13:42:11.284Z,101910.69
2022-10-06T13:44:39.868Z,101912.77
2022-10-06T13:47:16.133Z,101912.10
2022-10-06T13:49:50.463Z,101912.64
2022-10-06T13:52:36.679Z,101908.91
2022-10-06T13:55:17.496Z,101906.00
2022-10-06T13:57:51.723Z,101901.71
2022-10-06T14:00:27.289Z,101899.15
2022-10-06T14:02:57.782Z,101894.45
2022-10-06T14:05:27.539Z,101894.77
2022-10-06T14:07:58.268Z,101894.63
2022-10-06T14:10:35.569Z,101892.73
2022-10-06T14:13:06.587Z,101889.05
2022-10-06T14:15:40.231Z,101891.95
2022-10-06T14:18:17.661Z,101886.94
2022-10-06T14:20:47.105Z,101889.65
2022-10-06T14:23:35.143Z,101889.55
2022-10-06T14:26:03.752Z,101889.58
2022-10-06T14:28:32.299Z,101890.38
2022-10-06T14:31:00.783Z,101886.65
2022-10-06T14:33:29.589Z,101884.39
2022-10-06T14:35:57.968Z,101884.88
2022-10-06T14:38:26.380Z,101882.27
2022-10-06T14:40:55.036Z,101882.56
2022-10-06T14:43:23.621Z,101884.45
2022-10-06T14:45:51.942Z,101887.23
2022-10-06T14:48:20.460Z,101885.48
2022-10-06T14:50:49.711Z,101885.26
2022-10-06T14:53:18.064Z,101888.23
2022-10-06T14:55:46.444Z,101885.28
2022-10-06T14:58:15.211Z,101885.02
2022-10-06T15:00:44.639Z,101880.84
2022-10-06T15:03:13.136Z,101881.20
2022-10-06T15:06:01.573Z,101884.45
2022-10-06T15:08:32.512Z,101889.48
2022-10-06T15:11:01.096Z,101889.98
2022-10-06T15:13:32.358Z,101892.64
2022-10-06T15:16:00.868Z,101890.90
2022-10-06T15:18:29.415Z,101890.01
2022-10-06T15:21:02.197Z,101893.84
2022-10-06T15:23:30.988Z,101893.05
2022-10-06T15:26:18.104Z,101896.27
2022-10-06T15:29:01.865Z,101895.81
2022-10-06T15:31:35.642Z,101898.08
2022-10-06T15:34:05.406Z,101893.81
2022-10-06T15:36:34.896Z,101901.50
2022-10-06T15:39:05.301Z,101904.91
2022-10-06T15:41:37.990Z,101905.58
2022-10-06T15:44:06.976Z,101904.31
2022-10-06T15:46:35.548Z,101905.70
2022-10-06T15:49:04.048Z,101906.44
2022-10-06T15:51:38.656Z,101905.45
2022-10-06T15:54:07.461Z,101909.52
2022-10-06T15:56:35.944Z,101910.20
2022-10-06T15:59:05.140Z,101911.73
2022-10-06T16:01:35.390Z,101914.31
2022-10-06T16:04:12.242Z,101916.27
2022-10-06T16:06:49.329Z,101915.60
2022-10-06T16:09:19.345Z,101921.29
2022-10-06T16:11:48.241Z,101923.02
2022-10-06T16:14:17.313Z,101930.39
2022-10-06T16:16:46.495Z,101931.67
2022-10-06T16:19:16.247Z,101933.09
2022-10-06T16:21:46.352Z,101939.21
2022-10-06T16:24:15.576Z,101940.23
2022-10-06T16:26:44.071Z,101945.04
2022-10-06T16:29:12.941Z,101946.05
2022-10-06T16:31:41.789Z,101950.11
2022-10-06T16:34:10.928Z,101948.66
2022-10-06T16:36:39.518Z,101946.08
2022-10-06T16:39:13.014Z,101948.12
2022-10-06T16:41:41.677Z,101947.34
2022-10-06T16:44:10.388Z,101949.83
2022-10-06T16:46:39.358Z,101953.50
2022-10-06T16:49:09.377Z,101955.55
2022-10-06T16:51:39.009Z,101962.34
2022-10-06T16:54:08.926Z,101956.75
2022-10-06T16:56:41.657Z,101965.36
2022-10-06T16:59:13.042Z,101965.87
2022-10-06T17:01:41.972Z,101964.69
2022-10-06T17:04:13.129Z,101966.34
2022-10-06T17:06:43.736Z,101966.98
2022-10-06T17:09:14.517Z,101971.34
2022-10-06T17:11:44.378Z,101972.38
2022-10-06T17:14:13.172Z,101974.64
2022-10-06T17:16:43.082Z,101979.04
2022-10-06T17:19:12.388Z,101979.88
2022-10-06T17:21:46.354Z,101982.48
2022-10-06T17:24:18.164Z,101986.36
2022-10-06T17:26:48.009Z,101989.00
2022-10-06T17:29:21.659Z,101990.13
2022-10-06T17:31:53.646Z,101993.88
2022-10-06T17:34:22.970Z,101991.67
2022-10-06T17:36:53.061Z,101994.15
2022-10-06T17:39:22.468Z,101992.83
2022-10-06T17:41:52.667Z,101998.70
2022-10-06T17:44:26.218Z,102000.45
2022-10-06T17:46:55.755Z,102000.81
2022-10-06T17:49:25.101Z,102000.27
2022-10-06T17:51:54.927Z,102000.92
2022-10-06T17:54:24.484Z,102004.11
2022-10-06T17:56:54.342Z,102004.54
2022-10-06T17:59:24.288Z,102006.59
2022-10-06T18:01:56.819Z,102009.65
2022-10-06T18:04:26.710Z,102011.02
2022-10-06T18:06:55.947Z,102017.38
2022-10-06T18:09:24.632Z,102015.85
2022-10-06T18:12:33.050Z,102017.66
2022-10-06T18:15:01.633Z,102016.06
2022-10-06T18:17:30.116Z,102018.16
2022-10-06T18:19:58.598Z,102017.04
2022-10-06T18:22:26.980Z,102015.39
2022-10-06T18:24:59.206Z,102017.53
2022-10-06T18:27:28.357Z,102016.36
2022-10-06T18:29:57.032Z,102020.95
2022-10-06T18:33:56.423Z,102023.34
2022-10-06T18:38:02.622Z,102023.98
2022-10-06T18:40:31.312Z,102027.48
2022-10-06T18:43:00.618Z,102026.17
2022-10-06T18:45:47.988Z,102032.17
2022-10-06T18:48:35.156Z,102033.52
2022-10-06T18:51:03.842Z,102037.61
2022-10-06T18:53:33.567Z,102035.46
2022-10-06T18:56:01.832Z,102030.63
2022-10-06T18:58:30.312Z,102034.81
2022-10-06T19:01:04.046Z,102036.64
2022-10-06T19:03:32.914Z,102037.86
2022-10-06T19:06:01.390Z,102035.05
2022-10-06T19:08:29.686Z,102038.50
2022-10-06T19:11:20.883Z,102039.38
2022-10-06T19:13:52.164Z,102042.89
2022-10-06T19:16:21.026Z,102051.21
2022-10-06T19:18:49.815Z,102050.37
2022-10-06T19:21:18.601Z,102053.71
2022-10-06T19:23:47.210Z,102052.63
2022-10-06T19:26:15.753Z,102051.04
2022-10-06T19:28:44.170Z,102056.81
2022-10-06T19:31:15.201Z,102054.77
2022-10-06T19:33:44.068Z,102064.02
2022-10-06T19:36:13.072Z,102061.75
2022-10-06T19:38:42.686Z,102059.55
2022-10-06T19:41:30.317Z,102060.70
2022-10-06T19:43:59.006Z,102065.17
2022-10-06T19:46:27.332Z,102068.46
2022-10-06T19:48:56.993Z,102070.43
2022-10-06T19:51:25.678Z,102070.19
2022-10-06T19:53:54.059Z,102074.58
2022-10-06T19:56:25.918Z,102074.34
2022-10-06T19:58:54.478Z,102073.13
2022-10-06T20:01:22.700Z,102072.48
2022-10-06T20:03:51.493Z,102075.88
2022-10-06T20:06:21.028Z,102076.35
2022-10-06T20:08:50.071Z,102077.31
2022-10-06T20:11:20.089Z,102073.97
2022-10-06T20:13:48.984Z,102066.27
2022-10-06T20:16:19.029Z,102070.84
2022-10-06T20:18:50.882Z,102069.80
2022-10-06T20:21:20.636Z,102072.03
2022-10-06T20:23:50.388Z,102072.54
2022-10-06T20:26:20.299Z,102070.86
2022-10-06T20:28:49.216Z,102067.43
2022-10-06T20:31:17.832Z,102064.94
2022-10-06T20:33:46.850Z,102072.63
2022-10-06T20:36:15.252Z,102070.98
2022-10-06T20:39:02.781Z,102077.52
2022-10-06T20:41:31.979Z,102079.44
2022-10-06T20:44:01.179Z,102077.94
2022-10-06T20:46:31.825Z,102082.56
2022-10-06T20:49:03.761Z,102082.67
2022-10-06T20:51:33.282Z,102083.11
2022-10-06T20:54:04.403Z,102084.96
2022-10-06T20:56:34.989Z,102082.16
2022-10-06T20:59:04.460Z,102086.43
2022-10-06T21:01:32.865Z,102089.64
2022-10-06T21:04:02.242Z,102089.40
2022-10-06T21:06:31.031Z,102093.19
2022-10-06T21:09:00.332Z,102096.77
2022-10-06T21:11:28.843Z,102098.88
2022-10-06T21:13:57.605Z,102104.94
2022-10-06T21:16:27.112Z,102105.77
2022-10-06T21:18:55.594Z,102102.34
2022-10-06T21:21:24.006Z,102101.64
2022-10-06T21:23:52.351Z,102099.87
2022-10-06T21:26:22.062Z,102100.11
2022-10-06T21:28:53.517Z,102099.08
2022-10-06T21:31:23.768Z,102098.22
2022-10-06T21:33:52.905Z,102096.59
2022-10-06T21:36:21.211Z,102097.30
2022-10-06T21:38:50.717Z,102096.02
2022-10-06T21:41:30.101Z,102092.89
2022-10-06T21:43:58.748Z,102090.37
2022-10-06T21:46:29.199Z,102086.23
2022-10-06T21:48:58.679Z,102086.31
2022-10-06T21:51:28.607Z,102082.93
2022-10-06T21:53:57.587Z,102084.63
2022-10-06T21:56:27.192Z,102084.42
2022-10-06T21:58:56.354Z,102085.65
2022-10-06T22:01:32.074Z,102091.41
2022-10-06T22:04:01.447Z,102091.29
2022-10-06T22:06:30.949Z,102092.20
2022-10-06T22:08:59.914Z,102091.46
2022-10-06T22:11:29.450Z,102088.61
2022-10-06T22:13:59.790Z,102081.71
2022-10-06T22:16:29.614Z,102081.85
2022-10-06T22:18:58.684Z,102080.74
2022-10-06T22:21:26.862Z,102080.27
2022-10-06T22:23:56.529Z,102084.04
2022-10-06T22:26:25.132Z,102083.07
2022-10-06T22:28:54.459Z,102089.10
2022-10-06T22:31:25.958Z,102088.96
2022-10-06T22:33:56.231Z,102087.39
2022-10-06T22:36:25.701Z,102095.05
2022-10-06T22:38:54.427Z,102097.23
2022-10-06T22:41:23.281Z,102097.96
2022-10-06T22:43:57.907Z,102101.55
2022-10-06T22:46:27.497Z,102105.74
2022-10-06T22:48:55.931Z,102098.77
2022-10-06T22:51:25.004Z,102099.73
2022-10-06T22:53:57.870Z,102104.14
2022-10-06T22:56:31.942Z,102101.23
2022-10-06T22:59:00.918Z,102100.95
2022-10-06T23:01:30.148Z,102102.41
2022-10-06T23:03:59.829Z,102098.59
2022-10-06T23:06:31.555Z,102099.04
2022-10-06T23:09:00.198Z,102100.08
2022-10-06T23:11:28.855Z,102104.42
2022-10-06T23:13:57.543Z,102107.50
2022-10-06T23:16:25.810Z,102110.15
2022-10-06T23:18:55.532Z,102111.52
2022-10-06T23:21:27.586Z,102112.05
2022-10-06T23:23:58.749Z,102110.65
2022-10-06T23:26:28.041Z,102114.29
2022-10-06T23:28:57.966Z,102109.39
2022-10-06T23:31:26.504Z,102108.16
2022-10-06T23:33:55.336Z,102104.38
2022-10-06T23:36:23.798Z,102101.92
2022-10-06T23:38:52.295Z,102100.42
2022-10-06T23:41:21.190Z,102101.34
2022-10-06T23:43:49.886Z,102101.91
2022-10-06T23:46:18.319Z,102100.23
2022-10-06T23:48:46.780Z,102098.36
2022-10-06T23:51:15.830Z,102096.77
2022-10-06T23:53:44.314Z,102100.02
2022-10-06T23:56:13.306Z,102102.23
2022-10-06T23:58:42.734Z,102104.02
